Time;durP1;ratioP1;P1;durP2;ratioP2;P2;SDS_P1;SDS_P2;PMS_P1;PMS_P2;Temp;Humidity;BMP_temperature;BMP_pressure;BME280_temperature;BME280_humidity;BME280_pressure;Samples;Min_cycle;Max_cycle;Signal;HPM_P1;HPM_P2
2022/03/21 00:00:56;;;;;;;53.58;42.90;;;;;;;3.14;67.10;102767.22;5031596;28;20780;-69
2022/03/21 00:03:24;;;;;;;55.15;41.55;;;;;;;3.09;66.62;102759.56;5033079;28;20033;-69
2022/03/21 00:05:50;;;;;;;55.35;41.83;;;;;;;3.09;66.69;102758.75;5033894;28;20099;-69
2022/03/21 00:08:17;;;;;;;53.97;41.42;;;;;;;3.04;67.13;102760.97;5040684;28;20030;-69
2022/03/21 00:10:43;;;;;;;52.70;40.80;;;;;;;3.04;66.91;102761.81;5034251;28;20629;-69
2022/03/21 00:13:09;;;;;;;55.92;42.00;;;;;;;2.98;67.40;102759.63;5033423;28;20480;-69
2022/03/21 00:15:35;;;;;;;53.60;42.00;;;;;;;3.01;67.35;102760.22;5034241;28;20507;-69
2022/03/21 00:18:03;;;;;;;55.47;41.03;;;;;;;2.99;67.46;102762.19;5033759;28;20056;-69
2022/03/21 00:20:30;;;;;;;55.47;41.58;;;;;;;2.93;66.86;102753.81;5016606;28;20427;-69
2022/03/21 00:22:55;;;;;;;52.55;40.83;;;;;;;2.93;66.89;102765.38;5034215;28;20159;-69
2022/03/21 00:25:21;;;;;;;53.22;40.13;;;;;;;2.87;66.72;102765.00;5033833;28;20108;-69
2022/03/21 00:27:47;;;;;;;52.38;40.00;;;;;;;2.84;67.14;102768.81;5024134;28;20051;-68
2022/03/21 00:30:13;;;;;;;55.28;41.30;;;;;;;2.83;67.34;102772.44;5033679;28;20448;-69
2022/03/21 00:32:38;;;;;;;56.53;40.88;;;;;;;2.82;67.44;102774.28;5034134;28;20087;-69
2022/03/21 00:35:07;;;;;;;54.42;42.10;;;;;;;2.76;67.88;102773.91;5033527;28;20120;-69
2022/03/21 00:37:35;;;;;;;55.00;41.97;;;;;;;2.71;67.95;102773.47;5033678;28;20469;-69
2022/03/21 00:40:00;;;;;;;56.92;42.05;;;;;;;2.72;68.32;102776.00;5033556;28;20021;-69
2022/03/21 00:42:26;;;;;;;55.08;42.00;;;;;;;2.70;68.10;102774.44;5033375;28;20167;-69
2022/03/21 00:44:54;;;;;;;58.55;41.83;;;;;;;2.67;68.46;102778.19;5033608;28;20034;-68
2022/03/21 00:47:20;;;;;;;58.58;42.97;;;;;;;2.60;67.99;102780.53;5033106;28;20026;-69
2022/03/21 00:49:46;;;;;;;56.20;42.75;;;;;;;2.58;67.85;102781.63;5033338;28;20538;-69
2022/03/21 00:52:12;;;;;;;53.63;41.47;;;;;;;2.57;67.56;102786.13;5033074;28;20567;-69
2022/03/21 00:54:37;;;;;;;55.22;42.10;;;;;;;2.58;67.85;102774.47;5033042;28;20112;-69
2022/03/21 00:57:02;;;;;;;55.65;40.75;;;;;;;2.57;67.79;102785.28;5033230;28;20366;-69
2022/03/21 00:59:28;;;;;;;55.22;41.17;;;;;;;2.53;67.62;102778.47;5033385;28;20033;-68
2022/03/21 01:01:53;;;;;;;55.05;41.15;;;;;;;2.49;67.39;102777.88;5029605;28;20041;-68
2022/03/21 01:04:18;;;;;;;56.72;41.50;;;;;;;2.46;67.82;102783.47;5032760;28;20764;-69
2022/03/21 01:06:44;;;;;;;53.70;40.75;;;;;;;2.40;68.62;102792.84;5015758;28;20033;-69
2022/03/21 01:09:12;;;;;;;54.60;40.88;;;;;;;2.40;68.44;102790.16;5032722;28;20087;-68
2022/03/21 01:11:37;;;;;;;55.03;41.70;;;;;;;2.39;68.42;102792.97;5033124;28;20029;-69
2022/03/21 01:14:02;;;;;;;53.60;40.22;;;;;;;2.36;68.23;102794.06;5032682;28;20033;-69
2022/03/21 01:16:28;;;;;;;53.42;41.03;;;;;;;2.32;67.99;102786.41;5032616;28;20167;-69
2022/03/21 01:18:53;;;;;;;54.83;39.65;;;;;;;2.34;68.23;102793.34;5032719;28;20119;-69
2022/03/21 01:21:18;;;;;;;51.58;40.45;;;;;;;2.35;67.83;102791.50;5032589;28;20034;-69
2022/03/21 01:23:43;;;;;;;51.47;38.53;;;;;;;2.32;68.12;102786.41;5033058;28;20605;-68
2022/03/21 01:26:09;;;;;;;50.63;39.53;;;;;;;2.33;67.68;102790.78;5032703;28;20026;-69
2022/03/21 01:28:34;;;;;;;54.92;40.15;;;;;;;2.34;68.81;102796.00;5032850;28;20124;-68
2022/03/21 01:30:59;;;;;;;52.55;41.47;;;;;;;2.30;67.53;102792.72;5032238;28;20033;-68
2022/03/21 01:33:24;;;;;;;53.25;40.75;;;;;;;2.32;68.53;102787.25;5032282;28;20112;-69
2022/03/21 01:35:50;;;;;;;53.75;40.50;;;;;;;2.29;68.32;102791.03;5032202;28;20057;-69
2022/03/21 01:38:15;;;;;;;51.65;38.58;;;;;;;2.27;67.82;102792.97;5032590;28;20531;-69
2022/03/21 01:40:40;;;;;;;53.72;39.70;;;;;;;2.24;68.32;102795.88;5032326;28;20037;-68
2022/03/21 01:43:10;;;;;;;52.97;39.70;;;;;;;2.19;67.62;102798.06;5032476;28;20510;-68
2022/03/21 01:45:35;;;;;;;51.00;38.67;;;;;;;2.14;67.98;102800.25;5032461;28;20112;-68
2022/03/21 01:48:00;;;;;;;52.83;40.25;;;;;;;2.14;68.31;102802.91;5032104;28;20144;-69
2022/03/21 01:50:26;;;;;;;51.20;39.35;;;;;;;2.07;68.22;102796.38;5031374;28;20120;-69
2022/03/21 01:55:43;;;;;;;57.70;40.60;;;;;;;2.08;68.18;102795.38;5031844;28;20036;-69
2022/03/21 01:55:46;;;;;;;50.00;39.78;;;;;;;2.09;68.20;102794.44;5032043;28;20120;-69
2022/03/21 01:58:15;;;;;;;53.08;41.47;;;;;;;2.08;68.76;102795.38;5032287;28;20354;-69
2022/03/21 02:00:42;;;;;;;53.40;40.83;;;;;;;2.00;69.00;102789.81;5029973;28;20072;-69
2022/03/21 02:03:07;;;;;;;55.55;41.33;;;;;;;2.04;69.22;102788.56;5032092;28;20091;-69
2022/03/21 02:05:36;;;;;;;52.80;39.90;;;;;;;2.01;68.46;102788.81;5032026;28;20037;-69
2022/03/21 02:08:02;;;;;;;53.70;41.03;;;;;;;2.03;68.58;102786.91;5032360;28;20029;-69
2022/03/21 02:10:28;;;;;;;57.00;42.47;;;;;;;2.06;68.70;102797.34;5015635;28;21451;-69
2022/03/21 02:12:54;;;;;;;54.65;41.13;;;;;;;2.08;68.80;102795.38;5032172;28;20472;-69
2022/03/21 02:15:19;;;;;;;58.78;42.38;;;;;;;2.04;67.94;102794.78;5031610;28;20072;-69
2022/03/21 02:17:46;;;;;;;53.17;39.85;;;;;;;2.03;68.78;102794.91;5031986;28;20452;-69
2022/03/21 02:20:16;;;;;;;55.50;41.67;;;;;;;2.05;68.32;102804.47;5031711;28;20033;-69
2022/03/21 02:22:48;;;;;;;50.00;40.10;;;;;;;1.98;68.65;102805.97;5031592;28;20044;-69
2022/03/21 02:25:30;;;;;;;;;;;;;;;2.11;67.22;102801.34;5031965;28;20087;-69
2022/03/21 02:27:59;;;;;;;53.00;40.95;;;;;;;1.93;68.31;102798.31;5024576;28;19917;-69
2022/03/21 02:30:30;;;;;;;52.50;41.03;;;;;;;1.90;68.36;102803.88;5031211;28;20030;-69
2022/03/21 02:32:56;;;;;;;53.47;42.10;;;;;;;1.89;68.24;102796.00;5031751;28;20041;-69
2022/03/21 02:35:22;;;;;;;54.50;42.45;;;;;;;1.87;68.40;102800.59;5036251;28;20439;-69
2022/03/21 02:37:48;;;;;;;55.88;41.85;;;;;;;1.85;68.35;102798.03;5031631;28;20045;-69
2022/03/21 02:40:16;;;;;;;55.10;42.28;;;;;;;1.86;68.86;102809.59;5031144;28;20056;-69
2022/03/21 02:42:41;;;;;;;51.70;40.10;;;;;;;1.80;68.50;102802.91;5031792;28;20044;-69
2022/03/21 02:45:07;;;;;;;53.65;40.30;;;;;;;1.72;68.14;102797.28;5029863;28;20033;-69
2022/03/21 02:47:32;;;;;;;53.38;41.38;;;;;;;1.70;69.29;102805.41;5031371;28;20021;-69
2022/03/21 02:50:00;;;;;;;53.25;41.50;;;;;;;1.69;68.83;102801.06;5030908;28;20416;-69
2022/03/21 02:52:28;;;;;;;57.05;42.67;;;;;;;1.71;69.18;102792.94;5031411;28;20052;-69
2022/03/21 02:54:54;;;;;;;52.95;40.38;;;;;;;1.73;68.96;102794.50;5031554;28;20036;-70
2022/03/21 02:57:19;;;;;;;54.58;41.35;;;;;;;1.76;68.63;102791.59;5031337;28;20025;-68
2022/03/21 02:59:45;;;;;;;57.53;42.92;;;;;;;1.73;68.89;102794.50;5030440;28;20029;-69
2022/03/21 03:02:10;;;;;;;62.38;43.38;;;;;;;1.76;69.15;102796.09;5029073;28;20033;-69
2022/03/21 03:04:35;;;;;;;58.05;42.17;;;;;;;1.72;69.03;102790.16;5031005;28;20045;-68
2022/03/21 03:07:01;;;;;;;58.47;42.17;;;;;;;1.70;68.90;102792.06;5030544;28;20393;-68
2022/03/21 03:09:26;;;;;;;56.92;42.80;;;;;;;1.70;69.05;102792.06;5031304;28;20108;-69
2022/03/21 03:11:51;;;;;;;58.58;42.78;;;;;;;1.69;69.07;102798.41;5031639;28;20109;-69
2022/03/21 03:14:16;;;;;;;55.97;41.67;;;;;;;1.68;68.59;102798.50;5031298;28;20112;-70
2022/03/21 03:16:42;;;;;;;60.63;42.05;;;;;;;1.66;69.57;102793.28;5031344;28;20036;-69
2022/03/21 03:19:08;;;;;;;60.03;43.88;;;;;;;1.63;68.29;102800.66;5043389;28;20034;-69
2022/03/21 03:21:36;;;;;;;64.30;42.50;;;;;;;1.57;68.67;102793.97;5030888;28;20053;-69
2022/03/21 03:24:04;;;;;;;59.10;43.35;;;;;;;1.62;68.58;102799.00;5031327;28;20030;-68
2022/03/21 03:26:32;;;;;;;54.80;43.10;;;;;;;1.61;68.66;102794.59;5030938;28;20104;-76
2022/03/21 03:28:57;;;;;;;55.88;42.33;;;;;;;1.53;69.06;102790.72;5022227;28;20122;-74
2022/03/21 03:31:22;;;;;;;54.55;43.08;;;;;;;1.51;69.63;102786.44;5034484;28;20500;-69
2022/03/21 03:33:48;;;;;;;60.47;44.85;;;;;;;1.55;69.70;102796.75;5031059;28;20038;-72
2022/03/21 03:36:15;;;;;;;60.33;44.47;;;;;;;1.59;69.88;102798.25;5031346;28;20388;-67
2022/03/21 03:38:41;;;;;;;62.22;45.00;;;;;;;1.60;69.17;102817.75;5054911;28;20037;-70
2022/03/21 03:41:10;;;;;;;61.90;46.63;;;;;;;1.62;69.70;102805.16;5026507;28;20021;-69
2022/03/21 03:43:36;;;;;;;61.85;46.50;;;;;;;1.59;69.76;102811.59;5037449;28;20029;-69
2022/03/21 03:46:01;;;;;;;65.45;46.75;;;;;;;1.62;70.43;102807.84;5034767;28;20025;-70
2022/03/21 03:48:28;;;;;;;63.20;46.13;;;;;;;1.64;70.34;102816.56;5048268;28;20069;-69
2022/03/21 03:50:54;;;;;;;64.55;46.13;;;;;;;1.59;70.01;102808.06;5034545;28;20037;-69
2022/03/21 03:53:19;;;;;;;60.22;45.88;;;;;;;1.56;69.67;102813.66;5033984;28;20038;-70
2022/03/21 03:55:44;;;;;;;66.70;45.70;;;;;;;1.56;70.27;102816.31;5033837;28;20491;-69
2022/03/21 03:58:10;;;;;;;67.18;46.45;;;;;;;1.48;70.43;102808.91;5034349;28;20045;-69
2022/03/21 04:00:36;;;;;;;62.20;47.10;;;;;;;1.50;70.88;102814.97;5031418;28;20045;-69
2022/03/21 04:05:45;;;;;;;59.40;43.25;;;;;;;1.53;70.18;102817.38;5034249;28;20115;-69
2022/03/21 04:08:11;;;;;;;56.13;44.38;;;;;;;1.52;70.51;102820.16;5033949;28;20029;-69
2022/03/21 04:10:36;;;;;;;64.00;45.97;;;;;;;1.49;70.81;102821.25;5033940;28;20532;-68
2022/03/21 04:13:02;;;;;;;65.78;46.65;;;;;;;1.44;70.40;102823.44;5034177;28;20034;-68
2022/03/21 04:15:27;;;;;;;62.58;46.20;;;;;;;1.37;70.72;102816.84;5026953;28;20039;-68
2022/03/21 04:17:53;;;;;;;61.28;45.53;;;;;;;1.38;70.03;102821.22;5034142;28;20048;-68
2022/03/21 04:20:19;;;;;;;70.50;46.17;;;;;;;1.33;71.18;102808.25;5032725;28;20026;-68
2022/03/21 04:22:44;;;;;;;64.55;46.80;;;;;;;1.39;70.49;102823.78;5033970;28;20083;-68
2022/03/21 04:25:10;;;;;;;62.10;46.30;;;;;;;1.34;70.73;102811.75;5033794;28;20026;-68
2022/03/21 04:27:36;;;;;;;58.38;45.00;;;;;;;1.33;71.43;102820.69;5034150;28;20048;-68
2022/03/21 04:30:03;;;;;;;61.78;45.88;;;;;;;1.33;70.95;102821.56;5034284;28;20036;-69
2022/03/21 04:32:29;;;;;;;62.70;45.40;;;;;;;1.30;71.25;102813.81;5033719;28;20057;-70
2022/03/21 04:34:54;;;;;;;65.50;45.75;;;;;;;1.24;71.23;102817.78;5034080;28;20107;-68
2022/03/21 04:37:19;;;;;;;64.00;46.50;;;;;;;1.28;70.91;102807.72;5033391;28;20037;-68
2022/03/21 04:39:45;;;;;;;65.55;46.40;;;;;;;1.33;71.00;102815.38;5033821;28;20033;-68
2022/03/21 04:42:10;;;;;;;65.15;46.60;;;;;;;1.30;71.62;102816.47;5034084;28;20037;-69
2022/03/21 04:44:36;;;;;;;61.97;45.92;;;;;;;1.26;71.03;102806.16;5034031;28;20550;-69
2022/03/21 04:47:01;;;;;;;61.40;45.63;;;;;;;1.28;71.01;102820.22;5015967;28;20037;-69
2022/03/21 04:49:27;;;;;;;61.70;44.88;;;;;;;1.28;71.27;102822.88;5033580;28;20053;-70
2022/03/21 04:51:52;;;;;;;61.03;45.15;;;;;;;1.21;71.29;102818.00;5033692;28;20129;-68
2022/03/21 04:54:18;;;;;;;57.35;44.05;;;;;;;1.21;70.82;102823.34;5033096;28;20037;-69
2022/03/21 04:56:43;;;;;;;57.30;43.70;;;;;;;1.20;71.19;102820.78;5033391;28;20053;-69
2022/03/21 04:59:09;;;;;;;61.88;44.03;;;;;;;1.16;70.88;102822.84;5033322;28;20033;-68
2022/03/21 05:01:35;;;;;;;59.38;44.85;;;;;;;1.09;71.19;102823.38;5030052;28;20373;-68
2022/03/21 05:04:01;;;;;;;58.92;44.13;;;;;;;1.09;71.65;102829.59;5033375;28;20496;-69
2022/03/21 05:06:26;;;;;;;62.75;45.40;;;;;;;1.10;70.85;102825.94;5033085;28;20075;-70
2022/03/21 05:08:51;;;;;;;59.97;44.30;;;;;;;1.12;71.00;102839.16;5033332;28;20504;-69
2022/03/21 05:11:17;;;;;;;62.03;45.15;;;;;;;1.11;70.98;102840.16;5033455;28;20036;-68
2022/03/21 05:13:42;;;;;;;58.70;43.67;;;;;;;1.09;70.78;102844.72;5033355;28;20037;-67
2022/03/21 05:16:08;;;;;;;64.10;44.58;;;;;;;1.06;71.09;102840.50;5033492;28;20029;-68
2022/03/21 05:18:34;;;;;;;68.53;44.35;;;;;;;1.11;71.22;102845.47;5033118;28;20412;-69
2022/03/21 05:21:00;;;;;;;58.95;44.22;;;;;;;1.09;70.96;102837.59;5033422;28;20216;-68
2022/03/21 05:31:37;;;;;;;61.00;43.47;;;;;;;1.08;71.88;102838.53;5032803;28;20045;-69
2022/03/21 05:36:46;;;;;;;57.53;41.33;;;;;;;1.04;71.93;102837.06;5032667;28;20120;-70
2022/03/21 05:39:12;;;;;;;61.10;43.63;;;;;;;1.06;72.48;102840.50;5033292;28;20072;-70
2022/03/21 05:41:37;;;;;;;59.97;42.83;;;;;;;1.08;72.11;102838.53;5032609;28;20033;-70
2022/03/21 05:44:03;;;;;;;62.65;43.38;;;;;;;1.09;71.45;102840.25;5032873;28;20033;-70
2022/03/21 05:46:28;;;;;;;58.72;42.95;;;;;;;1.08;71.53;102838.53;5031499;28;20069;-68
2022/03/21 05:48:59;;;;;;;58.42;42.28;;;;;;;1.05;71.72;102828.09;5032367;28;20041;-70
2022/03/21 05:51:28;;;;;;;56.67;43.35;;;;;;;1.04;71.79;102840.59;5032686;28;20112;-69
2022/03/21 05:53:55;;;;;;;62.03;42.80;;;;;;;1.07;72.46;102844.84;5032927;28;20037;-69
2022/03/21 05:56:21;;;;;;;62.88;44.85;;;;;;;1.09;72.47;102842.06;5032418;28;20428;-68
2022/03/21 05:58:46;;;;;;;64.63;43.67;;;;;;;1.05;72.51;102844.09;5032435;28;20052;-69
2022/03/21 06:01:12;;;;;;;63.92;44.13;;;;;;;1.08;72.09;102851.03;5030033;28;20033;-68
2022/03/21 06:03:38;;;;;;;65.10;44.15;;;;;;;1.09;72.87;102860.72;5014419;28;20056;-68
2022/03/21 06:06:04;;;;;;;66.68;43.38;;;;;;;1.09;72.25;102848.25;5032036;28;20037;-69
2022/03/21 06:08:29;;;;;;;65.45;44.83;;;;;;;1.10;71.85;102859.75;5032494;28;20052;-68
2022/03/21 06:11:03;;;;;;;70.05;45.10;;;;;;;1.09;72.33;102852.72;5032589;28;20491;-70
2022/03/21 06:13:32;;;;;;;60.13;45.03;;;;;;;1.12;72.84;102850.69;5032250;28;20025;-68
2022/03/21 06:16:03;;;;;;;62.30;43.50;;;;;;;1.18;73.26;102855.56;5032358;28;20426;-69
2022/03/21 06:18:28;;;;;;;61.45;43.35;;;;;;;1.26;72.71;102856.81;5032164;28;20040;-70
2022/03/21 06:20:53;;;;;;;60.97;44.72;;;;;;;1.24;72.33;102860.44;5032460;28;20021;-69
2022/03/21 06:23:18;;;;;;;61.78;44.47;;;;;;;1.25;72.42;102863.94;5032345;28;20033;-69
2022/03/21 06:25:44;;;;;;;62.00;43.97;;;;;;;1.24;73.10;102865.78;5032219;28;20849;-69
2022/03/21 06:28:09;;;;;;;58.10;42.22;;;;;;;1.29;72.63;102867.25;5032588;28;20036;-70
2022/03/21 06:30:35;;;;;;;67.97;43.78;;;;;;;1.29;72.11;102864.59;5032074;28;20033;-69
2022/03/21 06:33:00;;;;;;;68.20;44.80;;;;;;;1.33;73.49;102871.38;5032052;28;20028;-69
2022/03/21 06:35:25;;;;;;;64.18;45.40;;;;;;;1.34;73.56;102865.94;5031548;28;20436;-70
2022/03/21 06:37:51;;;;;;;67.97;44.72;;;;;;;1.44;73.26;102879.44;5031934;28;20033;-69
2022/03/21 06:40:16;;;;;;;63.67;44.78;;;;;;;1.48;73.80;102877.41;5032062;28;20116;-68
2022/03/21 06:42:42;;;;;;;66.05;45.42;;;;;;;1.53;73.33;102868.09;5031779;28;20036;-69
2022/03/21 06:45:08;;;;;;;63.90;45.22;;;;;;;1.62;73.23;102882.56;5032134;28;20507;-69
2022/03/21 06:47:33;;;;;;;70.07;46.60;;;;;;;1.66;74.01;102881.38;5014401;28;20034;-69
2022/03/21 06:49:58;;;;;;;60.55;44.35;;;;;;;1.67;72.88;102882.22;5031565;28;20049;-70
2022/03/21 06:52:24;;;;;;;62.97;44.10;;;;;;;1.72;73.37;102885.38;5032065;28;20505;-69
2022/03/21 06:54:49;;;;;;;68.60;44.85;;;;;;;1.76;73.98;102882.34;5031744;28;20170;-69
2022/03/21 06:57:16;;;;;;;65.95;44.72;;;;;;;1.82;75.17;102883.69;5012515;28;20484;-69
2022/03/21 06:59:43;;;;;;;61.05;45.85;;;;;;;1.90;74.55;102900.00;5015769;28;20541;-69
2022/03/21 07:02:08;;;;;;;66.43;47.22;;;;;;;1.97;74.56;102895.03;5028335;28;20104;-70
2022/03/21 07:04:34;;;;;;;66.97;46.38;;;;;;;1.99;74.48;102900.25;5031665;28;20065;-69
2022/03/21 07:06:59;;;;;;;68.78;45.88;;;;;;;2.06;74.28;102898.81;5031886;28;20461;-70
2022/03/21 07:09:25;;;;;;;65.35;45.42;;;;;;;2.14;74.72;102891.06;5032162;28;20030;-69
2022/03/21 07:11:51;;;;;;;64.72;45.20;;;;;;;2.20;74.86;102901.25;5031717;28;20040;-70
2022/03/21 07:14:17;;;;;;;60.63;43.58;;;;;;;2.27;75.05;102901.66;5031688;28;20037;-70
2022/03/21 07:16:42;;;;;;;63.15;44.92;;;;;;;2.36;74.52;102905.44;5033395;28;20483;-69
2022/03/21 07:19:07;;;;;;;64.22;45.30;;;;;;;2.45;74.74;102910.06;5035565;28;20037;-69
2022/03/21 07:21:33;;;;;;;64.03;44.38;;;;;;;2.53;75.24;102907.59;5035738;28;20105;-69
2022/03/21 07:23:58;;;;;;;65.35;43.45;;;;;;;2.65;75.51;102917.31;5035774;28;20037;-70
2022/03/21 07:26:24;;;;;;;60.95;43.88;;;;;;;2.80;75.58;102915.25;5035448;28;20583;-70
2022/03/21 07:28:49;;;;;;;62.10;43.97;;;;;;;2.91;75.89;102905.53;5035458;28;20068;-69
2022/03/21 07:31:14;;;;;;;57.80;42.55;;;;;;;2.98;76.09;102902.22;5035464;28;20370;-70
2022/03/21 07:33:41;;;;;;;62.13;42.42;;;;;;;3.12;75.39;102905.59;5034967;28;20452;-71
2022/03/21 07:36:07;;;;;;;58.03;42.15;;;;;;;3.21;75.84;102912.88;5029789;28;20481;-70
2022/03/21 07:38:34;;;;;;;54.90;41.17;;;;;;;3.30;75.90;102911.28;5043460;28;20468;-71
2022/03/21 07:40:59;;;;;;;59.13;41.03;;;;;;;3.43;75.84;102909.31;5034999;28;20053;-70
2022/03/21 07:43:25;;;;;;;53.65;37.85;;;;;;;3.64;77.05;102911.16;5017497;28;20057;-70
2022/03/21 07:48:34;;;;;;;51.60;37.55;;;;;;;3.91;77.74;102908.00;5034744;28;20449;-71
2022/03/21 07:50:59;;;;;;;52.72;38.28;;;;;;;4.01;78.58;102905.38;5034718;28;20029;-71
2022/03/21 07:53:25;;;;;;;54.33;37.63;;;;;;;4.11;77.78;102908.97;5034618;28;20037;-69
2022/03/21 07:55:50;;;;;;;48.65;37.00;;;;;;;4.26;78.92;102909.47;5033267;28;20037;-70
2022/03/21 07:58:15;;;;;;;56.70;37.47;;;;;;;4.40;78.19;102909.13;5034764;28;20072;-71
2022/03/21 08:00:43;;;;;;;55.00;36.63;;;;;;;4.53;79.24;102900.88;5032127;28;20056;-73
2022/03/21 08:03:14;;;;;;;46.38;33.90;;;;;;;4.64;78.65;102905.28;5034273;28;20461;-76
2022/03/21 08:05:39;;;;;;;48.10;32.65;;;;;;;4.76;78.80;102906.88;5033623;28;20044;-72
2022/03/21 08:08:06;;;;;;;49.92;32.78;;;;;;;4.91;78.94;102903.84;5033453;28;20384;-73
2022/03/21 08:10:32;;;;;;;45.92;30.88;;;;;;;5.04;78.64;102904.44;5034317;28;20041;-72
2022/03/21 08:12:57;;;;;;;42.97;29.90;;;;;;;5.15;78.42;102906.16;5034966;28;20026;-72
2022/03/21 08:15:23;;;;;;;41.80;28.83;;;;;;;5.29;78.67;102913.78;5034673;28;20076;-72
2022/03/21 08:18:03;;;;;;;41.17;28.80;;;;;;;5.46;77.97;102914.09;5034598;28;20037;-72
2022/03/21 08:20:33;;;;;;;38.25;25.67;;;;;;;5.60;76.94;102910.13;5034469;28;20472;-72
2022/03/21 08:23:00;;;;;;;38.88;25.13;;;;;;;5.75;76.27;102919.47;5034721;28;20064;-72
2022/03/21 08:25:27;;;;;;;39.22;24.63;;;;;;;5.90;76.66;102919.03;5034323;28;20033;-72
2022/03/21 08:27:52;;;;;;;37.55;23.58;;;;;;;6.02;76.45;102915.22;5033621;28;20041;-70
2022/03/21 08:30:18;;;;;;;35.17;23.75;;;;;;;6.10;75.06;102917.19;5034366;28;20030;-70
2022/03/21 08:32:47;;;;;;;33.28;22.73;;;;;;;6.21;74.67;102915.19;5034144;28;20037;-70
2022/03/21 08:35:14;;;;;;;36.72;22.58;;;;;;;6.32;74.38;102918.72;5033812;28;20622;-70
2022/03/21 08:37:39;;;;;;;31.42;19.55;;;;;;;6.42;72.97;102919.53;5033584;28;20083;-71
2022/03/21 08:40:06;;;;;;;28.75;18.65;;;;;;;6.59;71.86;102906.31;5033306;28;20033;-70
2022/03/21 08:42:32;;;;;;;26.33;17.42;;;;;;;6.73;71.57;102909.38;5026458;28;20029;-70
2022/03/21 08:44:57;;;;;;;30.00;17.23;;;;;;;6.87;70.50;102909.84;5051222;28;20358;-70
2022/03/21 08:47:24;;;;;;;28.27;16.67;;;;;;;7.05;70.50;102912.56;5016153;28;20029;-71
2022/03/21 08:49:49;;;;;;;27.02;16.63;;;;;;;7.16;69.96;102915.06;5033011;28;20050;-70
2022/03/21 08:52:15;;;;;;;27.30;16.90;;;;;;;7.23;69.22;102907.22;5033426;28;20036;-71
2022/03/21 08:54:41;;;;;;;28.85;16.88;;;;;;;7.32;68.73;102914.38;5032602;28;20025;-71
2022/03/21 08:57:06;;;;;;;30.92;17.98;;;;;;;7.38;68.80;102908.41;5037409;28;20040;-71
2022/03/21 08:59:32;;;;;;;26.17;17.38;;;;;;;7.52;68.91;102909.72;5033845;28;20052;-71
2022/03/21 09:01:57;;;;;;;28.00;16.27;;;;;;;7.65;68.52;102903.09;5031138;28;20075;-71
2022/03/21 09:04:23;;;;;;;27.92;17.13;;;;;;;7.77;67.49;102910.75;5033758;28;20087;-71
2022/03/21 09:06:49;;;;;;;30.17;17.40;;;;;;;7.88;67.21;102906.13;5033366;28;20049;-71
2022/03/21 09:09:15;;;;;;;27.98;17.67;;;;;;;7.90;67.53;102906.84;5033613;28;20036;-71
2022/03/21 09:11:41;;;;;;;27.70;16.98;;;;;;;7.97;67.51;102918.66;5033106;28;20051;-72
2022/03/21 09:14:08;;;;;;;30.50;16.67;;;;;;;8.08;66.87;102912.19;5033432;28;20504;-76
2022/03/21 09:16:34;;;;;;;28.00;17.27;;;;;;;8.22;66.54;102911.59;5033143;28;20109;-75
2022/03/21 09:18:59;;;;;;;30.75;17.55;;;;;;;8.28;66.77;102921.75;5032813;28;20484;-72
2022/03/21 09:21:24;;;;;;;27.70;18.05;;;;;;;8.42;66.27;102917.63;5033292;28;20079;-72
2022/03/21 09:23:50;;;;;;;27.90;18.02;;;;;;;8.43;65.18;102905.00;5032949;28;20026;-73
2022/03/21 09:26:15;;;;;;;32.38;18.25;;;;;;;8.50;65.24;102909.63;5033439;28;20037;-71
2022/03/21 09:28:42;;;;;;;31.77;17.88;;;;;;;8.52;65.50;102904.06;5032940;28;20040;-73
2022/03/21 09:31:07;;;;;;;26.95;18.20;;;;;;;8.58;65.13;102898.00;5032578;28;20536;-74
2022/03/21 09:33:34;;;;;;;26.73;16.13;;;;;;;8.64;65.11;102900.06;5033181;28;20104;-73
2022/03/21 09:36:00;;;;;;;29.30;17.52;;;;;;;8.81;65.19;102895.56;5030000;28;20022;-73
2022/03/21 09:38:25;;;;;;;28.17;18.33;;;;;;;8.90;64.58;102893.75;5031838;28;20457;-76
2022/03/21 09:40:50;;;;;;;29.08;17.63;;;;;;;9.02;64.64;102891.59;5032597;28;20037;-73
2022/03/21 09:43:15;;;;;;;23.52;16.77;;;;;;;9.11;63.63;102889.78;5032766;28;20039;-73
2022/03/21 09:45:41;;;;;;;30.92;17.55;;;;;;;9.21;63.53;102890.47;5032779;28;20045;-74
2022/03/21 09:48:12;;;;;;;29.17;17.67;;;;;;;9.29;63.42;102885.06;5032465;28;20037;-71
2022/03/21 09:50:44;;;;;;;25.90;16.77;;;;;;;9.34;63.17;102887.28;5033178;28;20025;-73
2022/03/21 09:53:12;;;;;;;28.73;16.75;;;;;;;9.48;63.26;102888.47;5031627;28;20068;-73
2022/03/21 09:55:39;;;;;;;26.30;16.40;;;;;;;9.55;62.56;102887.63;5032560;28;20026;-72
2022/03/21 09:58:05;;;;;;;24.02;16.23;;;;;;;9.70;61.04;102881.56;5032628;28;20488;-73
2022/03/21 10:00:32;;;;;;;25.40;15.18;;;;;;;9.76;59.94;102884.41;5030893;28;20030;-73
2022/03/21 10:02:57;;;;;;;25.10;16.90;;;;;;;9.78;60.98;102883.41;5032554;28;20030;-73
2022/03/21 10:05:39;;;;;;;31.00;16.08;;;;;;;9.86;61.59;102886.13;5032880;28;20029;-72
2022/03/21 10:08:11;;;;;;;;;;;;;;;9.88;62.75;102889.50;5031615;28;20053;-74
2022/03/21 10:10:36;;;;;;;29.88;16.17;;;;;;;10.04;61.43;102884.06;5032576;28;20426;-73
2022/03/21 10:13:03;;;;;;;25.85;15.50;;;;;;;10.09;59.98;102878.97;5032506;28;20029;-73
2022/03/21 10:15:29;;;;;;;25.63;15.10;;;;;;;10.19;59.65;102872.53;5032590;28;20095;-73
2022/03/21 10:18:10;;;;;;;28.85;16.00;;;;;;;10.30;60.55;102877.59;5032472;28;20064;-74
2022/03/21 10:20:36;;;;;;;;;;;;;;;10.33;61.51;102871.00;5033049;28;20079;-74
2022/03/21 10:23:24;;;;;;;23.13;15.00;;;;;;;10.45;59.78;102872.34;5031159;28;19909;-73
2022/03/21 10:25:50;;;;;;;25.65;14.93;;;;;;;10.66;59.42;102869.03;5032005;28;20496;-74
2022/03/21 10:28:33;;;;;;;23.02;15.43;;;;;;;10.82;59.40;102877.09;5032598;28;20029;-73
2022/03/21 10:31:01;;;;;;;22.20;14.90;;;;;;;10.88;57.61;102866.56;5032294;28;20036;-73
2022/03/21 10:33:26;;;;;;;27.80;15.70;;;;;;;10.94;58.30;102872.09;5032431;28;20041;-74
2022/03/21 10:35:51;;;;;;;27.83;15.38;;;;;;;10.92;57.26;102868.72;5032249;28;20025;-73
2022/03/21 10:38:35;;;;;;;21.65;14.65;;;;;;;11.03;58.37;102863.94;5032151;28;20041;-73
2022/03/21 10:41:08;;;;;;;27.25;16.23;;;;;;;11.17;58.06;102879.41;5031851;28;20041;-74
2022/03/21 10:43:34;;;;;;;25.55;15.60;;;;;;;11.37;57.80;102871.69;5031083;28;20045;-73
2022/03/21 10:46:02;;;;;;;29.52;16.70;;;;;;;11.45;57.44;102866.19;5032139;28;20461;-74
2022/03/21 10:48:29;;;;;;;31.63;16.83;;;;;;;11.55;57.12;102865.94;5031788;28;20045;-74
2022/03/21 10:50:56;;;;;;;25.80;16.58;;;;;;;11.67;56.36;102871.75;5032824;28;20113;-74
2022/03/21 10:53:33;;;;;;;26.13;16.15;;;;;;;11.70;56.19;102863.28;5036246;28;20469;-75
2022/03/21 10:56:10;;;;;;;28.50;16.65;;;;;;;11.79;57.12;102864.03;5036029;28;20473;-74
2022/03/21 10:58:35;;;;;;;29.40;17.40;;;;;;;11.92;56.71;102853.41;5036232;28;20053;-73
2022/03/21 11:01:24;;;;;;;29.00;16.83;;;;;;;12.06;57.38;102854.47;5033581;28;20072;-74
2022/03/21 11:03:51;;;;;;;28.38;16.33;;;;;;;12.12;56.76;102852.88;5035996;28;20065;-74
2022/03/21 11:06:17;;;;;;;26.60;17.10;;;;;;;12.25;55.30;102853.09;5036167;28;20116;-74
2022/03/21 11:08:44;;;;;;;25.65;16.35;;;;;;;12.28;56.36;102846.44;5035616;28;20035;-73
2022/03/21 11:11:10;;;;;;;30.17;18.17;;;;;;;12.28;56.05;102843.72;5035698;28;20029;-73
2022/03/21 11:13:37;;;;;;;28.38;16.35;;;;;;;12.28;55.86;102847.28;5017991;28;20096;-74
2022/03/21 11:16:03;;;;;;;25.52;17.25;;;;;;;12.41;55.82;102846.63;5034022;28;20029;-73
2022/03/21 11:18:29;;;;;;;30.05;18.60;;;;;;;12.44;54.20;102846.25;5035876;28;20513;-74
2022/03/21 11:20:59;;;;;;;27.05;17.52;;;;;;;12.54;55.39;102844.06;5034291;28;20025;-73
2022/03/21 11:23:27;;;;;;;27.67;17.13;;;;;;;12.53;54.99;102836.97;5035743;28;20025;-73
2022/03/21 11:25:57;;;;;;;25.25;16.80;;;;;;;12.70;55.38;102839.47;5035427;28;20029;-73
2022/03/21 11:29:09;;;;;;;28.30;17.25;;;;;;;12.87;56.27;102838.19;5034298;28;20045;-73
2022/03/21 11:31:47;;;;;;;23.38;16.00;;;;;;;13.02;55.11;102827.28;5009774;28;20041;-74